Time;durP1;ratioP1;P1;durP2;ratioP2;P2;SDS_P1;SDS_P2;PMS_P1;PMS_P2;Temp;Humidity;BMP_temperature;BMP_pressure;BME280_temperature;BME280_humidity;BME280_pressure;Samples;Min_cycle;Max_cycle;Signal;HPM_P1;HPM_P2
2022/04/16 00:00:33;;;;;;;10.30;5.37;;;11.80;97.50;;;;;;4260689;27;20095;-58
2022/04/16 00:02:34;;;;;;;9.67;4.70;;;11.70;98.10;;;;;;4274542;27;20038;-59
2022/04/16 00:04:36;;;;;;;7.13;4.43;;;11.60;98.60;;;;;;4273873;27;20079;-53
2022/04/16 00:06:37;;;;;;;10.50;5.47;;;11.40;99.10;;;;;;4275238;27;20060;-55
2022/04/16 00:08:39;;;;;;;8.03;5.10;;;11.40;99.30;;;;;;4273773;27;20026;-51
2022/04/16 00:10:40;;;;;;;10.90;4.90;;;11.30;99.40;;;;;;4274939;27;20087;-56
2022/04/16 00:12:41;;;;;;;11.03;6.03;;;11.30;99.60;;;;;;4272573;27;20484;-53
2022/04/16 00:14:42;;;;;;;7.70;4.70;;;11.30;99.80;;;;;;4275091;27;20089;-54
2022/04/16 00:16:46;;;;;;;7.57;4.80;;;11.20;99.90;;;;;;4275947;27;20098;-52
2022/04/16 00:18:48;;;;;;;7.57;4.37;;;11.20;99.90;;;;;;4277609;27;20042;-53
2022/04/16 00:20:49;;;;;;;7.93;4.83;;;11.10;99.90;;;;;;4277500;27;20462;-53
2022/04/16 00:22:54;;;;;;;7.10;4.77;;;11.00;99.90;;;;;;4266685;27;20091;-56
2022/04/16 00:24:55;;;;;;;11.10;5.13;;;11.00;99.90;;;;;;4260066;27;20067;-56
2022/04/16 00:26:56;;;;;;;9.00;4.90;;;10.90;99.90;;;;;;4259440;27;20031;-53
2022/04/16 00:28:59;;;;;;;12.57;5.73;;;10.80;99.90;;;;;;4261216;27;20030;-52
2022/04/16 00:31:01;;;;;;;10.37;4.90;;;10.70;99.90;;;;;;4268074;27;20071;-53
2022/04/16 00:33:03;;;;;;;9.53;5.23;;;10.60;99.90;;;;;;4267358;27;20072;-56
2022/04/16 00:35:04;;;;;;;9.33;5.37;;;10.50;99.90;;;;;;4259694;27;20071;-49
2022/04/16 00:37:06;;;;;;;7.77;5.47;;;10.40;99.90;;;;;;4261214;27;20127;-54
2022/04/16 00:39:07;;;;;;;8.23;5.03;;;10.50;99.90;;;;;;4259467;27;20018;-52
2022/04/16 00:41:08;;;;;;;9.37;5.37;;;10.40;99.90;;;;;;4260325;27;20547;-56
2022/04/16 00:43:29;;;;;;;10.23;4.77;;;10.40;99.90;;;;;;4259366;27;20614;-53
2022/04/16 00:45:31;;;;;;;9.37;5.20;;;10.40;99.90;;;;;;4265041;27;20054;-51
2022/04/16 00:47:32;;;;;;;9.83;5.00;;;10.40;99.90;;;;;;4276938;27;20497;-48
2022/04/16 00:49:34;;;;;;;8.70;4.80;;;10.30;99.90;;;;;;4277057;27;20102;-52
2022/04/16 00:51:36;;;;;;;8.43;5.47;;;10.40;99.90;;;;;;4275167;27;20486;-50
2022/04/16 00:53:37;;;;;;;8.03;4.80;;;10.30;99.90;;;;;;4277367;27;20046;-47
2022/04/16 00:55:38;;;;;;;10.63;5.30;;;10.30;99.90;;;;;;4275968;27;20098;-52
2022/04/16 00:57:41;;;;;;;10.27;5.13;;;10.30;99.90;;;;;;4278069;27;20102;-49
2022/04/16 00:59:42;;;;;;;8.53;4.90;;;10.30;99.90;;;;;;4276289;27;20038;-51
2022/04/16 01:01:44;;;;;;;9.87;5.83;;;10.20;99.90;;;;;;4276497;27;20046;-52
2022/04/16 01:03:47;;;;;;;9.23;5.20;;;10.20;99.90;;;;;;4277688;27;20640;-51
2022/04/16 01:05:48;;;;;;;10.23;4.57;;;10.20;99.90;;;;;;4276879;27;20038;-53
2022/04/16 01:07:53;;;;;;;9.87;4.93;;;10.10;99.90;;;;;;4277698;27;20030;-53
2022/04/16 01:09:54;;;;;;;7.60;4.57;;;10.00;99.90;;;;;;4274163;27;20038;-55
2022/04/16 01:11:56;;;;;;;8.87;4.43;;;10.00;99.90;;;;;;4277930;27;20355;-51
2022/04/16 01:13:58;;;;;;;8.67;6.10;;;9.90;99.90;;;;;;4275613;27;20042;-56
2022/04/16 01:15:59;;;;;;;10.40;5.30;;;9.90;99.90;;;;;;4277926;27;20023;-53
2022/04/16 01:18:02;;;;;;;10.70;5.53;;;9.80;99.90;;;;;;4276093;27;20079;-51
2022/04/16 01:20:04;;;;;;;9.13;5.47;;;9.80;99.90;;;;;;4276943;27;20118;-51
2022/04/16 01:22:06;;;;;;;9.40;5.80;;;9.70;99.90;;;;;;4265305;27;20095;-51
2022/04/16 01:24:09;;;;;;;11.87;5.33;;;9.70;99.90;;;;;;4271130;27;20031;-52
2022/04/16 01:26:10;;;;;;;10.57;5.00;;;9.70;99.90;;;;;;4263838;27;20899;-55
2022/04/16 01:28:12;;;;;;;9.47;5.20;;;9.60;99.90;;;;;;4271820;27;20046;-50
2022/04/16 01:30:15;;;;;;;8.40;5.30;;;9.60;99.90;;;;;;4274435;27;20078;-53
2022/04/16 01:32:16;;;;;;;11.87;6.23;;;9.60;99.90;;;;;;4276323;27;20030;-55
2022/04/16 01:34:18;;;;;;;11.30;5.63;;;9.50;99.90;;;;;;4276061;27;20098;-53
2022/04/16 01:36:19;;;;;;;11.20;5.67;;;9.50;99.90;;;;;;4262906;27;20030;-53
2022/04/16 01:38:20;;;;;;;11.87;6.63;;;9.40;99.90;;;;;;4259186;27;20031;-51
2022/04/16 01:40:25;;;;;;;8.70;5.63;;;9.40;99.90;;;;;;4259163;27;20027;-53
2022/04/16 01:42:29;;;;;;;12.73;6.47;;;9.40;99.90;;;;;;4259634;27;20051;-51
2022/04/16 01:44:30;;;;;;;10.80;6.13;;;9.30;99.90;;;;;;4258690;27;20070;-48
2022/04/16 01:46:31;;;;;;;12.23;5.97;;;9.30;99.90;;;;;;4269518;27;20083;-50
2022/04/16 01:48:32;;;;;;;12.43;5.77;;;9.20;99.90;;;;;;4275731;27;20196;-52
2022/04/16 01:50:33;;;;;;;11.03;6.60;;;9.20;99.90;;;;;;4275840;27;20090;-48
2022/04/16 01:52:36;;;;;;;13.33;6.33;;;9.20;99.90;;;;;;4271705;27;20039;-48
2022/04/16 01:54:37;;;;;;;12.30;6.33;;;9.10;99.90;;;;;;4259455;27;20034;-50
2022/04/16 01:56:38;;;;;;;12.53;6.40;;;9.10;99.90;;;;;;4258178;27;20384;-52
2022/04/16 01:58:41;;;;;;;14.93;6.47;;;9.10;99.90;;;;;;4259725;27;20602;-54
2022/04/16 02:00:42;;;;;;;10.17;6.13;;;9.00;99.90;;;;;;4258451;27;20091;-56
2022/04/16 02:02:43;;;;;;;10.57;6.07;;;9.00;99.90;;;;;;4259439;27;20060;-51
2022/04/16 02:04:44;;;;;;;15.47;6.63;;;9.00;99.90;;;;;;4258246;27;20658;-56
2022/04/16 02:06:45;;;;;;;8.83;5.70;;;8.90;99.90;;;;;;4258673;27;20038;-49
2022/04/16 02:08:48;;;;;;;13.60;6.57;;;8.90;99.90;;;;;;4267596;27;20474;-54
2022/04/16 02:10:50;;;;;;;15.33;6.17;;;8.90;99.90;;;;;;4266356;27;20034;-50
2022/04/16 02:12:51;;;;;;;12.40;6.67;;;8.80;99.90;;;;;;4275602;27;20079;-54
2022/04/16 02:14:52;;;;;;;10.20;5.87;;;8.80;99.90;;;;;;4266090;27;20547;-52
2022/04/16 02:16:53;;;;;;;10.43;5.70;;;8.80;99.90;;;;;;4259573;27;20824;-50
2022/04/16 02:18:56;;;;;;;8.40;5.93;;;8.80;99.90;;;;;;4257365;27;20313;-55
2022/04/16 02:20:57;;;;;;;12.90;6.60;;;8.70;99.90;;;;;;4259402;27;20034;-50
2022/04/16 02:22:58;;;;;;;18.63;8.23;;;8.80;99.90;;;;;;4265777;27;20102;-52
2022/04/16 02:25:04;;;;;;;9.57;5.33;;;8.70;99.90;;;;;;4276269;27;20526;-51
2022/04/16 02:27:05;;;;;;;12.10;6.43;;;8.70;99.90;;;;;;4275167;27;20026;-52
2022/04/16 02:29:08;;;;;;;11.03;5.80;;;8.70;99.90;;;;;;4277134;27;20026;-51
2022/04/16 02:31:09;;;;;;;9.20;6.03;;;8.80;99.90;;;;;;4274043;27;20038;-52
2022/04/16 02:33:12;;;;;;;11.70;5.80;;;8.80;99.90;;;;;;4276294;27;20526;-53
2022/04/16 02:35:15;;;;;;;9.03;5.03;;;8.80;99.90;;;;;;4274460;27;20042;-53
2022/04/16 02:37:16;;;;;;;9.77;5.50;;;8.80;99.90;;;;;;4275529;27;20018;-54
2022/04/16 02:39:17;;;;;;;8.20;4.80;;;8.80;99.90;;;;;;4268125;27;20042;-53
2022/04/16 02:41:19;;;;;;;8.83;5.83;;;8.80;99.90;;;;;;4274831;27;20038;-51
2022/04/16 02:43:20;;;;;;;10.23;4.80;;;8.80;99.90;;;;;;4275654;27;20026;-54
2022/04/16 02:47:40;;;;;;;10.67;5.60;;;8.80;99.90;;;;;;4275626;27;20026;-53
2022/04/16 02:49:43;;;;;;;14.47;6.37;;;8.70;99.90;;;;;;4275301;27;20043;-56
2022/04/16 02:51:44;;;;;;;7.63;4.80;;;8.70;99.90;;;;;;4274179;27;20054;-56
2022/04/16 02:53:45;;;;;;;22.63;5.90;;;8.70;99.90;;;;;;4255906;27;20103;-56
2022/04/16 02:55:47;;;;;;;8.90;4.97;;;8.70;99.90;;;;;;4275978;27;20719;-53
2022/04/16 02:57:49;;;;;;;9.67;5.80;;;8.70;99.90;;;;;;4273862;27;20038;-49
2022/04/16 02:59:52;;;;;;;9.87;5.60;;;8.70;99.90;;;;;;4276395;27;20026;-51
2022/04/16 03:01:54;;;;;;;10.17;5.10;;;8.60;99.90;;;;;;4262003;27;20461;-53
2022/04/16 03:03:55;;;;;;;9.63;5.17;;;8.60;99.90;;;;;;4257788;27;20039;-54
2022/04/16 03:05:56;;;;;;;9.60;5.50;;;8.60;99.90;;;;;;4257204;27;20039;-59
2022/04/16 03:07:57;;;;;;;8.37;5.37;;;8.50;99.90;;;;;;4257996;27;20479;-52
2022/04/16 03:09:58;;;;;;;12.07;5.50;;;8.50;99.90;;;;;;4257085;27;20018;-52
2022/04/16 03:12:00;;;;;;;9.27;4.93;;;8.40;99.90;;;;;;4274515;27;20439;-54
2022/04/16 03:17:31;;;;;;;8.30;4.90;;;8.40;99.90;;;;;;4274927;27;20074;-49
2022/04/16 03:18:58;;;;;;;10.90;5.10;;;8.40;99.90;;;;;;4237586;27;20026;-50
2022/04/16 03:21:00;;;;;;;10.17;4.60;;;8.40;99.90;;;;;;4258451;27;20455;-53
2022/04/16 03:23:02;;;;;;;6.87;4.57;;;8.40;99.90;;;;;;4273634;27;20030;-58
2022/04/16 03:25:04;;;;;;;8.27;5.10;;;8.40;99.90;;;;;;4273309;27;20766;-53
2022/04/16 03:27:06;;;;;;;11.13;5.27;;;8.40;99.90;;;;;;4274317;27;20034;-55
2022/04/16 03:29:07;;;;;;;8.07;4.50;;;8.40;99.90;;;;;;4273613;27;20098;-55
2022/04/16 03:31:08;;;;;;;8.77;4.53;;;8.30;99.90;;;;;;4259369;27;20120;-54
2022/04/16 03:33:10;;;;;;;7.93;5.20;;;8.40;99.90;;;;;;4263593;27;20010;-51
2022/04/16 03:35:11;;;;;;;8.47;5.00;;;8.40;99.90;;;;;;4260782;27;20545;-51
2022/04/16 03:37:12;;;;;;;12.03;4.97;;;8.40;99.90;;;;;;4257066;27;20987;-51
2022/04/16 03:39:14;;;;;;;9.73;5.93;;;8.30;99.90;;;;;;4257198;27;20039;-53
2022/04/16 03:41:15;;;;;;;10.37;5.83;;;8.30;99.90;;;;;;4272329;27;20034;-53
2022/04/16 03:43:20;;;;;;;11.00;5.67;;;8.20;99.90;;;;;;4273865;27;20046;-54
2022/04/16 03:45:23;;;;;;;14.97;6.27;;;8.10;99.90;;;;;;4268760;27;20042;-51
2022/04/16 03:47:24;;;;;;;13.37;5.70;;;8.10;99.90;;;;;;4260551;27;20094;-57
2022/04/16 03:49:26;;;;;;;11.57;5.30;;;8.10;99.90;;;;;;4273122;27;20581;-59
2022/04/16 03:51:27;;;;;;;7.53;4.77;;;8.00;99.90;;;;;;4265765;27;20075;-50
2022/04/16 03:53:28;;;;;;;13.17;5.43;;;8.10;99.90;;;;;;4273704;27;20046;-54
2022/04/16 04:00:12;;;;;;;12.07;5.17;;;8.10;99.90;;;;;;4265874;27;20042;-52
2022/04/16 04:02:13;;;;;;;13.30;4.83;;;8.30;99.90;;;;;;4256090;27;20046;-49
2022/04/16 04:04:14;;;;;;;10.40;5.10;;;8.70;99.90;;;;;;4257165;27;20050;-55
2022/04/16 04:06:16;;;;;;;9.23;4.47;;;9.00;99.90;;;;;;4256231;27;20055;-54
2022/04/16 04:08:17;;;;;;;11.03;5.10;;;9.40;99.90;;;;;;4257019;27;20830;-53
2022/04/16 04:10:18;;;;;;;12.10;5.00;;;9.80;99.90;;;;;;4256492;27;20083;-51
2022/04/16 04:12:20;;;;;;;8.37;4.23;;;10.20;99.90;;;;;;4257016;27;20609;-52
2022/04/16 04:14:22;;;;;;;6.80;3.97;;;10.50;99.90;;;;;;4264494;27;20505;-52
2022/04/16 04:16:23;;;;;;;8.10;4.33;;;10.80;99.90;;;;;;4262183;27;20079;-56
2022/04/16 04:18:24;;;;;;;10.57;4.57;;;11.30;99.90;;;;;;4257763;27;20423;-51
2022/04/16 04:20:26;;;;;;;7.53;4.47;;;11.80;99.90;;;;;;4256043;27;20084;-54
2022/04/16 04:22:27;;;;;;;6.57;4.30;;;12.00;99.90;;;;;;4257033;27;20034;-56
2022/04/16 04:24:29;;;;;;;7.40;3.77;;;12.40;99.90;;;;;;4254804;27;20027;-55
2022/04/16 04:26:30;;;;;;;6.70;4.97;;;12.70;99.90;;;;;;4257364;27;20057;-55
2022/04/16 04:28:31;;;;;;;5.90;3.87;;;12.90;99.90;;;;;;4256500;27;20031;-57
2022/04/16 04:30:33;;;;;;;5.73;4.10;;;13.20;99.90;;;;;;4257893;27;20091;-53
2022/04/16 04:32:35;;;;;;;21.87;4.60;;;13.40;99.70;;;;;;4256497;27;20018;-55
2022/04/16 04:34:37;;;;;;;15.10;4.90;;;13.70;99.20;;;;;;4257242;27;20066;-53
2022/04/16 04:36:38;;;;;;;8.57;3.80;;;13.90;98.50;;;;;;4255890;27;20468;-54
2022/04/16 04:38:39;;;;;;;7.40;4.10;;;14.10;98.10;;;;;;4257105;27;20027;-54
2022/04/16 04:40:40;;;;;;;8.57;4.23;;;14.40;97.70;;;;;;4237889;28;20104;-56
2022/04/16 04:42:41;;;;;;;7.10;4.10;;;14.70;97.00;;;;;;4257102;27;20046;-57
2022/04/16 04:44:42;;;;;;;11.87;4.53;;;15.10;96.20;;;;;;4255365;27;20031;-57
2022/04/16 04:46:43;;;;;;;7.23;4.17;;;15.50;95.40;;;;;;4256194;27;20059;-56
2022/04/16 04:48:44;;;;;;;9.03;5.00;;;15.70;94.60;;;;;;4256434;27;20091;-48
2022/04/16 04:50:45;;;;;;;8.87;5.50;;;16.00;93.90;;;;;;4256997;27;20027;-56
2022/04/16 04:52:47;;;;;;;9.00;4.07;;;16.20;93.20;;;;;;4256514;27;20088;-53
2022/04/16 04:54:48;;;;;;;8.70;4.47;;;16.40;92.30;;;;;;4255552;27;20502;-57
2022/04/16 04:56:49;;;;;;;10.77;4.13;;;16.40;91.50;;;;;;4257341;27;20323;-53
2022/04/16 04:58:50;;;;;;;8.83;4.53;;;16.70;91.40;;;;;;4255955;27;20087;-55
2022/04/16 05:00:51;;;;;;;8.20;3.90;;;17.10;90.80;;;;;;4257636;27;20031;-53
2022/04/16 05:02:52;;;;;;;7.38;3.95;;;17.60;89.80;;;;;;4256217;27;20043;-53
2022/04/16 05:04:56;;;;;;;8.18;3.78;;;17.70;88.00;;;;;;4260533;27;20427;-55
2022/04/16 05:06:58;;;;;;;9.10;4.38;;;17.60;85.30;;;;;;4258240;27;20043;-54
2022/04/16 05:08:59;;;;;;;9.07;3.70;;;17.70;86.00;;;;;;4260492;27;20034;-56
2022/04/16 05:11:00;;;;;;;15.32;3.90;;;17.50;85.50;;;;;;4258069;27;20034;-58
2022/04/16 05:13:01;;;;;;;8.15;3.45;;;17.40;84.90;;;;;;4241299;27;20035;-59
2022/04/16 05:15:04;;;;;;;4.57;3.17;;;17.50;84.10;;;;;;4258336;27;20075;-55
2022/04/16 05:17:05;;;;;;;4.05;3.13;;;17.50;84.20;;;;;;4258842;27;20102;-56
2022/04/16 05:19:07;;;;;;;7.40;3.75;;;17.90;83.40;;;;;;4258930;27;20050;-55
2022/04/16 05:21:08;;;;;;;6.38;3.35;;;18.50;82.00;;;;;;4258206;27;20074;-54
2022/04/16 05:23:09;;;;;;;4.90;3.30;;;18.90;80.20;;;;;;4259799;27;20479;-54
2022/04/16 05:25:10;;;;;;;5.57;3.55;;;19.20;78.80;;;;;;4258754;27;20466;-60
2022/04/16 05:27:12;;;;;;;7.13;3.45;;;19.80;77.60;;;;;;4259142;27;20072;-62
2022/04/16 05:29:13;;;;;;;5.80;3.22;;;20.20;76.20;;;;;;4258351;27;20027;-56
2022/04/16 05:31:14;;;;;;;10.27;3.50;;;20.50;74.90;;;;;;4259792;27;20038;-56
2022/04/16 05:35:35;;;;;;;7.38;3.50;;;21.10;73.00;;;;;;4260056;27;20038;-55
2022/04/16 05:37:36;;;;;;;8.23;3.05;;;21.20;71.70;;;;;;4258699;27;20035;-57
2022/04/16 05:39:38;;;;;;;6.72;3.92;;;20.60;71.60;;;;;;4259720;27;20052;-57
2022/04/16 05:41:39;;;;;;;8.27;3.55;;;20.30;71.70;;;;;;4257730;27;20091;-56
2022/04/16 05:43:40;;;;;;;4.75;3.10;;;20.20;72.00;;;;;;4259666;27;20071;-61
2022/04/16 05:45:42;;;;;;;5.75;3.50;;;20.40;71.50;;;;;;4258552;27;20076;-56
2022/04/16 05:47:44;;;;;;;4.85;3.38;;;20.60;71.00;;;;;;4258772;27;20530;-57
2022/04/16 05:49:45;;;;;;;6.70;3.60;;;20.80;70.70;;;;;;4257801;27;20038;-55
2022/04/16 05:51:46;;;;;;;8.10;4.03;;;20.60;70.00;;;;;;4258005;27;20030;-56
2022/04/16 05:53:48;;;;;;;6.85;4.05;;;20.10;70.30;;;;;;4258761;27;20023;-56
2022/04/16 05:55:53;;;;;;;9.65;4.38;;;20.50;70.60;;;;;;4258183;27;20110;-52
2022/04/16 05:58:12;;;;;;;9.05;4.32;;;20.40;70.40;;;;;;4256184;27;20046;-52
2022/04/16 06:00:13;;;;;;;5.78;4.10;;;20.60;70.30;;;;;;4258411;27;20035;-50
2022/04/16 06:02:14;;;;;;;11.07;4.72;;;20.40;70.20;;;;;;4258886;27;20091;-55
2022/04/16 06:04:15;;;;;;;8.07;5.10;;;20.50;70.50;;;;;;4257394;27;20039;-56
2022/04/16 06:06:16;;;;;;;6.00;4.25;;;20.20;70.40;;;;;;4258997;27;20034;-55
2022/04/16 06:08:18;;;;;;;6.28;4.50;;;19.70;71.30;;;;;;4257057;27;20074;-55
2022/04/16 06:10:19;;;;;;;11.70;4.90;;;19.40;72.00;;;;;;4258919;27;20039;-56
2022/04/16 06:12:22;;;;;;;12.57;4.65;;;19.30;72.60;;;;;;4257724;27;20095;-57
2022/04/16 06:14:23;;;;;;;6.80;4.07;;;19.20;72.80;;;;;;4258614;27;20034;-54
2022/04/16 06:16:24;;;;;;;8.20;4.55;;;19.20;73.10;;;;;;4239066;27;20088;-54
2022/04/16 06:18:26;;;;;;;5.60;4.28;;;19.50;73.00;;;;;;4257849;27;20030;-54
2022/04/16 06:20:27;;;;;;;6.38;4.45;;;19.80;72.90;;;;;;4257100;27;20050;-55
2022/04/16 06:22:28;;;;;;;8.13;4.60;;;20.30;72.30;;;;;;4258201;27;20039;-55
2022/04/16 06:24:29;;;;;;;9.60;4.38;;;20.90;71.40;;;;;;4256314;27;20099;-51
2022/04/16 06:26:30;;;;;;;10.30;5.20;;;21.40;70.50;;;;;;4257668;27;20031;-56
2022/04/16 06:28:32;;;;;;;6.70;4.38;;;21.80;69.60;;;;;;4257850;27;20440;-60
2022/04/16 06:30:33;;;;;;;6.95;4.35;;;22.00;69.40;;;;;;4258270;27;20034;-53
2022/04/16 06:32:35;;;;;;;6.15;4.25;;;22.50;68.70;;;;;;4257899;27;20031;-58
2022/04/16 06:34:36;;;;;;;7.65;5.13;;;21.90;68.30;;;;;;4256902;27;20445;-60
2022/04/16 06:36:38;;;;;;;10.48;4.82;;;21.40;69.50;;;;;;4260556;27;20106;-58
2022/04/16 06:38:39;;;;;;;10.93;5.38;;;20.20;70.80;;;;;;4273441;27;20375;-57
2022/04/16 06:40:40;;;;;;;11.70;5.10;;;19.20;73.10;;;;;;4274956;27;20076;-60
2022/04/16 06:42:42;;;;;;;9.05;4.80;;;19.00;73.60;;;;;;4260458;27;20079;-62
2022/04/16 06:44:43;;;;;;;12.05;4.93;;;18.70;73.90;;;;;;4258755;27;20127;-55
2022/04/16 06:46:45;;;;;;;8.50;5.30;;;18.60;74.60;;;;;;4256778;27;20034;-55
2022/04/16 06:48:47;;;;;;;8.77;5.15;;;18.60;74.90;;;;;;4257993;27;20460;-51
2022/04/16 06:50:48;;;;;;;12.02;6.60;;;18.80;74.90;;;;;;4256535;27;20046;-52
2022/04/16 06:52:53;;;;;;;14.68;6.20;;;18.90;74.80;;;;;;4258009;27;20474;-56
2022/04/16 06:54:57;;;;;;;7.07;4.82;;;19.00;75.40;;;;;;4256787;27;20046;-53
2022/04/16 06:56:58;;;;;;;9.07;5.38;;;19.30;75.90;;;;;;4257507;27;20104;-49
2022/04/16 06:59:00;;;;;;;9.98;5.68;;;19.90;75.80;;;;;;4257074;27;20030;-55
2022/04/16 07:01:01;;;;;;;10.35;5.28;;;20.40;75.00;;;;;;4257867;27;20116;-55
2022/04/16 07:03:02;;;;;;;12.15;4.45;;;20.50;74.10;;;;;;4257496;27;20079;-53
2022/04/16 07:05:05;;;;;;;6.15;4.32;;;20.90;74.00;;;;;;4250797;27;20555;-52
2022/04/16 07:07:08;;;;;;;6.13;4.05;;;20.90;73.50;;;;;;4250611;27;20500;-60
2022/04/16 07:09:10;;;;;;;9.20;4.60;;;21.00;73.40;;;;;;4256266;27;20050;-48
2022/04/16 07:11:11;;;;;;;7.35;3.83;;;21.00;73.20;;;;;;4257961;27;20107;-58
2022/04/16 07:13:12;;;;;;;7.05;4.00;;;21.10;73.40;;;;;;4256319;27;20079;-56
2022/04/16 07:15:13;;;;;;;11.07;6.00;;;20.90;73.90;;;;;;4257753;27;20031;-54
2022/04/16 07:17:14;;;;;;;9.45;6.22;;;20.90;73.90;;;;;;4256465;27;20403;-55
2022/04/16 07:19:15;;;;;;;7.72;5.40;;;21.00;73.80;;;;;;4257926;27;20031;-55
2022/04/16 07:21:17;;;;;;;6.45;4.60;;;21.20;74.10;;;;;;4255531;27;20047;-55
2022/04/16 07:23:19;;;;;;;7.57;4.28;;;21.50;73.80;;;;;;4258159;27;20034;-60
2022/04/16 07:25:21;;;;;;;4.97;3.50;;;21.60;72.80;;;;;;4254762;27;20043;-55
2022/04/16 07:27:22;;;;;;;5.45;3.70;;;21.70;72.60;;;;;;4257118;27;20387;-52
2022/04/16 07:29:25;;;;;;;3.45;2.90;;;21.80;72.50;;;;;;4241856;27;20210;-59
2022/04/16 07:31:26;;;;;;;2.97;2.67;;;21.60;72.40;;;;;;4240458;27;20030;-55
2022/04/16 07:33:32;;;;;;;38.65;21.00;;;21.70;72.90;;;;;;4239251;27;20092;-56
2022/04/16 07:35:33;;;;;;;6.35;2.90;;;21.80;73.20;;;;;;4239854;27;20091;-55
2022/04/16 07:37:34;;;;;;;135.52;73.07;;;21.80;72.30;;;;;;4240613;27;20403;-51
2022/04/16 07:39:35;;;;;;;23.10;11.00;;;21.60;72.20;;;;;;4249396;27;20043;-58
2022/04/16 07:41:37;;;;;;;3.03;2.60;;;21.50;72.90;;;;;;4257420;27;20071;-56
2022/04/16 07:43:38;;;;;;;6.78;3.30;;;21.20;73.10;;;;;;4255644;27;20421;-56
2022/04/16 07:45:39;;;;;;;49.35;24.05;;;21.20;73.50;;;;;;4237666;27;20068;-55
2022/04/16 07:47:40;;;;;;;3.67;2.40;;;20.90;73.70;;;;;;4238138;27;20107;-55
2022/04/16 07:49:41;;;;;;;9.15;3.85;;;20.70;73.80;;;;;;4239846;28;20039;-56
2022/04/16 07:51:44;;;;;;;5.40;4.18;;;20.30;74.40;;;;;;4249169;27;20031;-57
2022/04/16 07:53:45;;;;;;;8.48;4.25;;;19.80;75.30;;;;;;4257291;27;20091;-59
2022/04/16 07:55:47;;;;;;;7.78;3.53;;;19.50;75.90;;;;;;4256116;27;20773;-56
2022/04/16 07:57:48;;;;;;;4.53;3.30;;;18.90;76.90;;;;;;4256993;27;20035;-60
2022/04/16 07:59:50;;;;;;;5.55;3.78;;;18.50;77.90;;;;;;4256047;27;20064;-54
2022/04/16 08:01:51;;;;;;;6.68;3.17;;;18.40;78.40;;;;;;4248790;27;20047;-59
2022/04/16 08:03:52;;;;;;;6.45;3.25;;;18.20;79.10;;;;;;4238818;28;20031;-58
2022/04/16 08:05:53;;;;;;;5.88;3.03;;;18.20;79.10;;;;;;4239463;27;20031;-53
2022/04/16 08:07:54;;;;;;;6.50;2.80;;;18.00;79.90;;;;;;4240010;28;20039;-57
2022/04/16 08:09:56;;;;;;;3.28;2.78;;;18.10;80.00;;;;;;4239222;28;20031;-53
2022/04/16 08:11:58;;;;;;;4.20;3.30;;;17.70;80.20;;;;;;4240442;28;20088;-60
2022/04/16 08:14:00;;;;;;;5.03;3.03;;;17.70;80.70;;;;;;4220043;28;20453;-55
2022/04/16 08:16:02;;;;;;;5.45;3.63;;;17.40;81.20;;;;;;4240375;28;20885;-57
2022/04/16 08:18:03;;;;;;;4.13;2.97;;;17.40;81.70;;;;;;4237222;28;20733;-58
2022/04/16 08:20:06;;;;;;;4.85;3.17;;;17.40;81.70;;;;;;4240292;28;20027;-54
2022/04/16 08:22:10;;;;;;;4.32;3.38;;;17.60;81.50;;;;;;4255016;27;20038;-54
2022/04/16 08:24:38;;;;;;;8.32;2.95;;;17.70;81.00;;;;;;4272731;27;20133;-54
2022/04/16 08:26:36;;;;;;;3.45;2.78;;;17.70;80.90;;;;;;4238225;28;20031;-56
2022/04/16 08:28:37;;;;;;;3.25;2.95;;;17.70;81.10;;;;;;4239780;28;20035;-58
2022/04/16 08:30:38;;;;;;;3.78;2.90;;;17.90;80.90;;;;;;4238490;28;20088;-60
2022/04/16 08:32:43;;;;;;;5.30;3.38;;;18.10;80.50;;;;;;4239857;28;20088;-58
2022/04/16 08:34:44;;;;;;;5.60;3.30;;;18.10;80.40;;;;;;4238219;28;20039;-56
2022/04/16 08:36:45;;;;;;;6.57;3.55;;;18.30;79.90;;;;;;4239601;27;20043;-58
2022/04/16 08:38:46;;;;;;;5.97;3.22;;;18.50;79.80;;;;;;4241072;27;20039;-53
2022/04/16 08:40:47;;;;;;;3.75;3.20;;;18.70;79.50;;;;;;4241493;27;20047;-54
2022/04/16 08:42:49;;;;;;;4.85;3.85;;;18.80;78.90;;;;;;4264071;27;20066;-54
2022/04/16 08:44:50;;;;;;;6.60;3.70;;;18.90;79.20;;;;;;4258755;27;20035;-54
2022/04/16 08:46:53;;;;;;;3.35;2.92;;;19.30;78.60;;;;;;4256112;27;20058;-60
2022/04/16 08:48:56;;;;;;;3.53;2.83;;;19.40;77.90;;;;;;4258723;27;20103;-52
2022/04/16 08:50:58;;;;;;;2.42;2.20;;;19.60;77.20;;;;;;4270883;27;20392;-57
2022/04/16 08:53:00;;;;;;;4.90;3.08;;;19.70;77.10;;;;;;4249841;27;20075;-54
2022/04/16 08:55:05;;;;;;;5.50;3.28;;;19.20;77.50;;;;;;4263825;27;20027;-60
2022/04/16 08:57:07;;;;;;;3.42;2.58;;;19.00;77.90;;;;;;4240442;27;20094;-60
2022/04/16 08:59:09;;;;;;;3.30;3.00;;;19.00;78.40;;;;;;4242332;27;20560;-62
2022/04/16 09:01:11;;;;;;;5.97;3.35;;;18.90;78.30;;;;;;4241809;27;20750;-57
2022/04/16 09:03:12;;;;;;;4.45;3.33;;;18.90;78.50;;;;;;4242665;27;20039;-58
2022/04/16 09:05:13;;;;;;;4.57;3.83;;;18.80;78.80;;;;;;4241063;27;20431;-60
2022/04/16 09:07:15;;;;;;;5.70;3.28;;;18.70;79.40;;;;;;4241794;27;20042;-55
2022/04/16 09:09:16;;;;;;;8.30;3.30;;;18.50;79.80;;;;;;4241875;27;20088;-60
2022/04/16 09:11:24;;;;;;;7.10;3.85;;;18.30;79.50;;;;;;4241750;27;20096;-60
2022/04/16 09:13:25;;;;;;;7.82;4.03;;;18.10;79.50;;;;;;4242566;27;20031;-62
2022/04/16 09:15:27;;;;;;;6.15;3.90;;;17.90;80.80;;;;;;4241981;27;20039;-56
2022/04/16 09:17:31;;;;;;;4.30;3.30;;;17.70;80.70;;;;;;4240985;27;20444;-57
2022/04/16 09:19:32;;;;;;;6.25;4.10;;;17.70;81.20;;;;;;4241141;27;20091;-58
2022/04/16 09:21:33;;;;;;;4.50;3.40;;;17.40;81.30;;;;;;4241934;27;20035;-60
2022/04/16 09:23:36;;;;;;;4.40;3.17;;;17.20;81.50;;;;;;4269892;27;20034;-55
2022/04/16 09:25:37;;;;;;;4.30;2.88;;;17.00;81.80;;;;;;4270971;27;20034;-61
2022/04/16 09:27:52;;;;;;;4.72;3.10;;;16.70;82.40;;;;;;4240984;27;20100;-61
2022/04/16 09:29:54;;;;;;;5.45;3.30;;;16.70;83.00;;;;;;4247797;27;20053;-60
2022/04/16 09:31:55;;;;;;;4.47;3.55;;;16.60;82.90;;;;;;4258471;27;20035;-61
2022/04/16 09:33:56;;;;;;;5.07;3.65;;;16.40;83.70;;;;;;4240207;27;20043;-58
2022/04/16 09:35:57;;;;;;;6.03;4.07;;;16.30;84.30;;;;;;4246255;27;20432;-59
2022/04/16 09:38:00;;;;;;;4.78;3.85;;;16.20;84.90;;;;;;4242150;27;20116;-57
2022/04/16 09:40:11;;;;;;;7.13;3.80;;;16.00;85.50;;;;;;4240559;27;20035;-61
2022/04/16 09:42:12;;;;;;;7.35;4.00;;;15.90;86.50;;;;;;4272829;27;20018;-62
2022/04/16 09:44:21;;;;;;;6.68;4.47;;;15.80;86.80;;;;;;4275324;27;20431;-60
2022/04/16 09:46:25;;;;;;;4.50;3.47;;;15.70;87.90;;;;;;4276701;27;20031;-59
2022/04/16 09:48:27;;;;;;;4.28;3.58;;;15.50;87.70;;;;;;4273691;27;20102;-60
2022/04/16 09:50:32;;;;;;;5.65;3.83;;;15.50;89.00;;;;;;4273635;27;20087;-58
2022/04/16 09:52:36;;;;;;;8.60;4.53;;;15.40;88.80;;;;;;4257069;27;20042;-57
2022/04/16 09:54:38;;;;;;;5.53;4.18;;;15.30;89.70;;;;;;4266981;27;20091;-60
2022/04/16 09:56:41;;;;;;;9.17;5.00;;;15.30;89.90;;;;;;4274226;27;20091;-60
2022/04/16 09:58:48;;;;;;;5.87;3.93;;;15.30;90.30;;;;;;4274877;27;20034;-57
2022/04/16 10:00:51;;;;;;;4.27;3.50;;;15.20;90.50;;;;;;4275389;27;20022;-58
2022/04/16 10:02:53;;;;;;;6.17;4.57;;;15.20;90.90;;;;;;4274573;27;20038;-56
2022/04/16 10:04:55;;;;;;;10.10;4.10;;;15.10;91.30;;;;;;4275339;27;20550;-56
2022/04/16 10:06:56;;;;;;;8.00;4.83;;;15.10;91.50;;;;;;4274582;27;20038;-55
2022/04/16 10:09:00;;;;;;;6.90;4.40;;;15.10;92.10;;;;;;4275877;27;20561;-57
2022/04/16 10:11:03;;;;;;;7.83;4.83;;;15.10;92.40;;;;;;4274312;27;20474;-59
2022/04/16 10:13:11;;;;;;;7.80;4.93;;;15.10;92.70;;;;;;4276061;27;20049;-59
2022/04/16 10:15:17;;;;;;;5.23;4.63;;;15.10;93.10;;;;;;4264216;27;20043;-59
2022/04/16 10:17:18;;;;;;;8.47;4.73;;;15.00;93.20;;;;;;4258423;27;20092;-58
2022/04/16 10:19:19;;;;;;;5.87;4.63;;;14.90;93.60;;;;;;4257038;27;20498;-56
2022/04/16 10:21:20;;;;;;;8.33;4.67;;;14.80;94.10;;;;;;4259123;27;20032;-58
2022/04/16 10:23:40;;;;;;;6.83;4.53;;;14.60;94.40;;;;;;4239175;27;20076;-58
2022/04/16 10:25:44;;;;;;;6.97;4.40;;;14.50;96.00;;;;;;4258818;27;20463;-59
2022/04/16 10:27:45;;;;;;;6.53;4.87;;;14.50;95.60;;;;;;4257446;27;20043;-57
2022/04/16 10:29:47;;;;;;;5.13;4.03;;;14.40;95.70;;;;;;4257667;27;20042;-58
2022/04/16 10:31:52;;;;;;;6.23;5.13;;;14.30;96.10;;;;;;4257873;27;20039;-56
2022/04/16 10:34:05;;;;;;;12.27;5.43;;;14.20;97.30;;;;;;4258275;27;20090;-60
2022/04/16 10:36:10;;;;;;;9.17;6.10;;;14.10;98.60;;;;;;4256783;27;20042;-55
2022/04/16 10:38:21;;;;;;;13.90;5.80;;;14.00;99.90;;;;;;4264829;27;20055;-59
2022/04/16 10:40:25;;;;;;;;;;;13.80;99.90;;;;;;4273367;27;20554;-57
2022/04/16 10:42:31;;;;;;;9.13;6.30;;;13.60;99.90;;;;;;4275181;27;19935;-60
2022/04/16 10:44:46;;;;;;;10.27;7.27;;;13.40;99.90;;;;;;4273567;27;20038;-60
2022/04/16 10:46:49;;;;;;;10.87;7.83;;;13.30;99.90;;;;;;4275888;27;20038;-59